メインページ
METAR-TAF:

METAR-TAF

空港 :

Trenton-Mercer Airport

トレントン, ニュージャージー州, アメリカ合衆国

緯度: 40-16-35N, 経度: 074-48-59W, 海抜: 64m

現時点の気象観測

当レポートは45分前の05:14(UTC)に作成
の風 4kt
気温 24°C
湿度 94%
気圧 1017 hPa
視程: 12.9km
高度1100ftの千切れ雲あり

METAR: KTTN 210514Z AUTO 19004KT 8SM BKN011 24/23 A3004 RMK AO2 T02390233

時間: 01:59 (05:59 UTC)

予報

当レポートは22分前の05:37(UTC)に作成
予報は21日の 06時(UTC)から 22日の 06時(UTC)まで有効
の風 4kt
視程: 10km
高度1100ftの雲は散在している
21日の 06時(UTC)から 21日の 08時(UTC)まで一時的に
高度1100ftの千切れ雲あり
21日の 1000時(UTC)から
変向風 3kt
視程: 8.0km
高度3500ftの千切れ雲あり
靄, 近辺でにわか雨
21日の 1300時(UTC)から
南/南西の風 5kt
視程: 10km
高度1500ftの千切れ雲あり
近辺でにわか雨
21日の 1600時(UTC)から
南/南西の風 8kt
視程: 10km
高度4500ftの雲は散在している
近辺でにわか雨
21日の 1800時(UTC)から
南/南西の風 10kt、最大16ktの突風を伴う
視程: 10km
高度6000ftの雲は散在している
近辺でにわか雨
確率 30%
21日の 22時(UTC)から 22日の 02時(UTC)まで
視程: 6.4km
高度2500ftの曇り, 積乱雲.
激しい雷雨, 雨
22日の 0200時(UTC)から
南西の風 6kt
視程: 10km
高度10000ftの千切れ雲あり

TAF: KTTN 210537Z 2106/2206 19004KT P6SM SCT011 TEMPO 2106/2108 BKN011 FM211000 VRB03KT 5SM BR VCSH BKN035 FM211300 20005KT P6SM VCSH BKN015 FM211600 21008KT P6SM VCSH SCT045 FM211800 21010G16KT P6SM VCSH SCT060 PROB30 2122/2202 4SM TSRA OVC025CB FM220200 23006KT P6SM BKN100

4,000以上の空港の気象観測と天気予報(METAR報とTAF報)

利用可能な観測所は地図上に黄色い丸と赤い丸で示す。

丸の上にカーソルを重ねると観測所名を参照できる。

次にクリックすると気象観測と天気予報を参照できる。

マップの切り替え:黒色「×」印の緑ボタンをクリックして拡大、「-」印の緑ボタンをクリックして縮小、緑色の三角印をクリックして隣りの地図に切り替え


METAR-TAF: